ADDS METAR Data INFO
IDs: Format: Raw Decoded Include TAF

Data at: 1054 UTC 19 Oct 2017

KPLN 190954Z AUTO 29009KT 10SM CLR 13/01 A2988 RMK AO2 SLP120 T01330006
KPLN 190854Z AUTO 29011G20KT 10SM CLR 15/09 A2984 RMK AO2 SLP103 T01500089 53008
KPLN 190754Z AUTO 25013G24KT 10SM CLR 16/10 A2982 RMK AO2 SLP098 T01610100
KPLN 190654Z AUTO 25015G24KT 10SM CLR 17/09 A2982 RMK AO2 PK WND 23030/0628 SLP094 T01720089
KPLN 190554Z AUTO 24014G24KT 10SM CLR 17/08 A2981 RMK AO2 SLP094 T01670078 10183 20161 58006
KPLN 190454Z AUTO 23015G24KT 10SM FEW060 17/07 A2982 RMK AO2 PK WND 21028/0436 SLP096 T01670067 402220028
KPLN 190354Z AUTO 22017G27KT 10SM CLR 17/06 A2983 RMK AO2 PK WND 20029/0316 SLP100 T01720061
KPLN 190254Z AUTO 21018G34KT 10SM CLR 17/06 A2983 RMK AO2 PK WND 23034/0248 SLP101 T01670056 58010
KPLN 190154Z AUTO 21013G28KT 10SM CLR 17/05 A2984 RMK AO2 PK WND 19029/0107 SLP105 T01670050
KPLN 190054Z AUTO 21019G32KT 10SM CLR 17/04 A2987 RMK AO2 PK WND 20032/0046 SLP114 T01720044
KPLN 182354Z AUTO 20016G24KT 10SM CLR 18/05 A2986 RMK AO2 SLP113 T01830050 10222 20183 56008
KPLN 182254Z AUTO 20010G24KT 10SM CLR 19/06 A2987 RMK AO2 SLP115 T01940056
KPLN 182154Z AUTO 21012G23KT 10SM CLR 21/06 A2986 RMK AO2 PK WND 22028/2142 SLP113 T02060061
KPLN 182054Z AUTO 21013G24KT 10SM CLR 21/07 A2989 RMK AO2 PK WND 20028/2035 SLP122 T02110072 56025
KPLN 181954Z AUTO 22012G25KT 10SM CLR 22/07 A2991 RMK AO2 PK WND 22028/1917 SLP131 T02170072
KPLN 181854Z AUTO 20019G24KT 10SM CLR 21/07 A2993 RMK AO2 SLP138 T02110067
KPLN 181754Z AUTO 22013G22KT 10SM CLR 21/08 A2996 RMK AO2 SLP149 T02110078 10211 20106 58016
KPLN 181654Z AUTO 22014G22KT 10SM CLR 20/08 A2999 RMK AO2 SLP157 T02000083
KPLN 181554Z AUTO 19012G17KT 10SM CLR 18/09 A3000 RMK AO2 SLP161 T01830089
KPLN 181454Z AUTO 21008G17KT 10SM CLR 17/09 A3001 RMK AO2 SLP166 T01670089 58010
KPLN 181354Z AUTO 19008KT 10SM CLR 15/09 A3003 RMK AO2 SLP171 T01500089
KPLN 181254Z AUTO 13004KT 10SM CLR 12/08 A3005 RMK AO2 SLP177 T01170083
KPLN 181154Z AUTO 18006KT 10SM CLR 11/08 A3004 RMK AO2 SLP177 T01060078 10122 20028 51003
KPLN 181054Z AUTO 13006KT 10SM CLR 10/08 A3004 RMK AO2 SLP174 T01000078
KPLN 180954Z AUTO 18004KT 10SM CLR 11/08 A3004 RMK AO2 SLP174 T01110078
KPLN 180854Z AUTO 11003KT 10SM CLR 06/05 A3003 RMK AO2 SLP173 T00610050 58003
KPLN 180754Z AUTO 00000KT 10SM CLR 05/04 A3004 RMK AO2 SLP175 T00500044
KPLN 180654Z AUTO 00000KT 10SM CLR 04/03 A3004 RMK AO2 SLP176 T00440033
KPLN 180554Z AUTO 00000KT 10SM CLR 03/03 A3004 RMK AO2 SLP177 T00330028 10111 20028 57006
KPLN 180454Z AUTO 00000KT 10SM CLR 04/03 A3005 RMK AO2 SLP179 T00390033 401720039
KPLN 180354Z AUTO 00000KT 10SM CLR 04/04 A3006 RMK AO2 SLP181 T00440044
KPLN 180254Z AUTO 00000KT 9SM CLR 05/04 A3006 RMK AO2 SLP183 T00500044 50005
KPLN 180240Z AUTO 00000KT 3SM BR FEW002 05/05 A3006 RMK AO2 T00500050
KPLN 180225Z AUTO 00000KT 1 1/4SM BR SCT002 06/06 A3006 RMK AO2 T00610061
KPLN 180215Z AUTO 00000KT 1/4SM FG VV002 06/06 A3006 RMK AO2 T00610061
KPLN 180207Z AUTO 00000KT 1/2SM FG VV002 07/07 A3006 RMK AO2 T00670067
KPLN 180202Z AUTO 00000KT 1 3/4SM BR CLR 06/06 A3006 RMK AO2 T00610061
KPLN 180154Z AUTO 00000KT 8SM CLR 06/06 A3006 RMK AO2 SLP184 T00560056
KPLN 180152Z AUTO 00000KT 4SM BR CLR 06/06 A3006 RMK AO2
KPLN 180146Z AUTO 00000KT 3/4SM BR VV002 07/07 A3006 RMK AO2 T00670067
KPLN 180137Z AUTO 00000KT 1 3/4SM BR CLR 07/07 A3006 RMK AO2 T00670067
KPLN 180054Z AUTO 00000KT 10SM CLR 09/08 A3006 RMK AO2 SLP182 T00890083
KPLN 172354Z AUTO 00000KT 10SM CLR 12/09 A3005 RMK AO2 SLP178 T01170094 10172 20117 53014